sensor_id;sensor_type;location;lat;lon;timestamp;P1;durP1;ratioP1;P2;durP2;ratioP2
64571;SDS011;51155;51.984;21.208;2023-12-07T00:00:04;11.50;;;7.60;;
64571;SDS011;51155;51.984;21.208;2023-12-07T00:02:36;12.60;;;7.90;;
64571;SDS011;51155;51.984;21.208;2023-12-07T00:05:08;12.00;;;7.40;;
64571;SDS011;51155;51.984;21.208;2023-12-07T00:07:39;11.50;;;7.40;;
64571;SDS011;51155;51.984;21.208;2023-12-07T00:10:11;10.50;;;7.50;;
64571;SDS011;51155;51.984;21.208;2023-12-07T00:12:43;11.70;;;7.20;;
64571;SDS011;51155;51.984;21.208;2023-12-07T00:15:14;9.70;;;7.20;;
64571;SDS011;51155;51.984;21.208;2023-12-07T00:17:46;9.50;;;7.20;;
64571;SDS011;51155;51.984;21.208;2023-12-07T00:20:17;10.60;;;7.40;;
64571;SDS011;51155;51.984;21.208;2023-12-07T00:22:49;10.00;;;7.80;;
64571;SDS011;51155;51.984;21.208;2023-12-07T00:25:21;11.50;;;7.70;;
64571;SDS011;51155;51.984;21.208;2023-12-07T00:27:53;11.00;;;7.40;;
64571;SDS011;51155;51.984;21.208;2023-12-07T00:30:25;10.10;;;6.60;;
64571;SDS011;51155;51.984;21.208;2023-12-07T00:32:56;11.10;;;7.90;;
64571;SDS011;51155;51.984;21.208;2023-12-07T00:35:28;11.40;;;7.50;;
64571;SDS011;51155;51.984;21.208;2023-12-07T00:38:01;12.10;;;7.10;;
64571;SDS011;51155;51.984;21.208;2023-12-07T00:40:32;10.10;;;7.10;;
64571;SDS011;51155;51.984;21.208;2023-12-07T00:43:08;11.40;;;7.20;;
64571;SDS011;51155;51.984;21.208;2023-12-07T00:45:39;12.00;;;7.30;;
64571;SDS011;51155;51.984;21.208;2023-12-07T00:48:11;11.10;;;7.60;;
64571;SDS011;51155;51.984;21.208;2023-12-07T00:50:43;9.70;;;7.00;;
64571;SDS011;51155;51.984;21.208;2023-12-07T00:53:14;11.50;;;7.00;;
64571;SDS011;51155;51.984;21.208;2023-12-07T00:55:46;11.10;;;7.40;;
64571;SDS011;51155;51.984;21.208;2023-12-07T00:58:18;10.10;;;7.00;;
64571;SDS011;51155;51.984;21.208;2023-12-07T01:00:49;11.20;;;7.60;;
64571;SDS011;51155;51.984;21.208;2023-12-07T01:03:21;12.20;;;7.00;;
64571;SDS011;51155;51.984;21.208;2023-12-07T01:05:52;11.70;;;7.10;;
64571;SDS011;51155;51.984;21.208;2023-12-07T01:08:24;9.10;;;6.50;;
64571;SDS011;51155;51.984;21.208;2023-12-07T01:10:56;10.80;;;7.50;;
64571;SDS011;51155;51.984;21.208;2023-12-07T01:13:28;12.60;;;7.10;;
64571;SDS011;51155;51.984;21.208;2023-12-07T01:16:00;11.00;;;7.10;;
64571;SDS011;51155;51.984;21.208;2023-12-07T01:18:31;11.50;;;7.40;;
64571;SDS011;51155;51.984;21.208;2023-12-07T01:21:04;12.30;;;7.00;;
64571;SDS011;51155;51.984;21.208;2023-12-07T01:23:36;12.00;;;6.70;;
64571;SDS011;51155;51.984;21.208;2023-12-07T01:26:07;12.10;;;7.60;;
64571;SDS011;51155;51.984;21.208;2023-12-07T01:28:39;9.90;;;6.10;;
64571;SDS011;51155;51.984;21.208;2023-12-07T01:31:11;9.10;;;6.00;;
64571;SDS011;51155;51.984;21.208;2023-12-07T01:33:43;10.10;;;6.90;;
64571;SDS011;51155;51.984;21.208;2023-12-07T01:36:15;9.80;;;6.60;;
64571;SDS011;51155;51.984;21.208;2023-12-07T01:38:46;11.50;;;6.80;;
64571;SDS011;51155;51.984;21.208;2023-12-07T01:41:18;10.20;;;6.80;;
64571;SDS011;51155;51.984;21.208;2023-12-07T01:43:50;11.20;;;6.60;;
64571;SDS011;51155;51.984;21.208;2023-12-07T01:46:21;10.80;;;6.50;;
64571;SDS011;51155;51.984;21.208;2023-12-07T01:48:53;9.90;;;7.00;;
64571;SDS011;51155;51.984;21.208;2023-12-07T01:51:25;11.20;;;6.60;;
64571;SDS011;51155;51.984;21.208;2023-12-07T01:53:57;11.50;;;6.50;;
64571;SDS011;51155;51.984;21.208;2023-12-07T01:56:29;9.60;;;6.50;;
64571;SDS011;51155;51.984;21.208;2023-12-07T01:59:01;9.90;;;6.40;;
64571;SDS011;51155;51.984;21.208;2023-12-07T02:01:34;10.10;;;6.90;;
64571;SDS011;51155;51.984;21.208;2023-12-07T02:04:06;9.40;;;6.30;;
64571;SDS011;51155;51.984;21.208;2023-12-07T02:06:38;10.00;;;6.40;;
64571;SDS011;51155;51.984;21.208;2023-12-07T02:09:10;10.30;;;6.50;;
64571;SDS011;51155;51.984;21.208;2023-12-07T02:11:41;9.90;;;6.20;;
64571;SDS011;51155;51.984;21.208;2023-12-07T02:14:13;10.10;;;6.00;;
64571;SDS011;51155;51.984;21.208;2023-12-07T02:17:01;10.30;;;6.10;;
64571;SDS011;51155;51.984;21.208;2023-12-07T02:22:26;9.00;;;6.20;;
64571;SDS011;51155;51.984;21.208;2023-12-07T02:25:06;11.70;;;6.10;;
64571;SDS011;51155;51.984;21.208;2023-12-07T02:27:40;10.40;;;6.40;;
64571;SDS011;51155;51.984;21.208;2023-12-07T02:30:12;10.20;;;6.00;;
64571;SDS011;51155;51.984;21.208;2023-12-07T02:32:45;9.00;;;6.10;;
64571;SDS011;51155;51.984;21.208;2023-12-07T02:35:17;8.70;;;5.70;;
64571;SDS011;51155;51.984;21.208;2023-12-07T02:37:49;10.10;;;6.10;;
64571;SDS011;51155;51.984;21.208;2023-12-07T02:42:54;8.70;;;5.80;;
64571;SDS011;51155;51.984;21.208;2023-12-07T02:45:26;10.10;;;6.80;;
64571;SDS011;51155;51.984;21.208;2023-12-07T02:47:58;9.30;;;6.10;;
64571;SDS011;51155;51.984;21.208;2023-12-07T02:50:30;10.30;;;6.00;;
64571;SDS011;51155;51.984;21.208;2023-12-07T02:53:01;8.60;;;6.10;;
64571;SDS011;51155;51.984;21.208;2023-12-07T02:55:33;10.00;;;6.30;;
64571;SDS011;51155;51.984;21.208;2023-12-07T02:58:05;8.00;;;6.00;;
64571;SDS011;51155;51.984;21.208;2023-12-07T03:00:38;10.10;;;6.50;;
64571;SDS011;51155;51.984;21.208;2023-12-07T03:03:10;10.20;;;6.30;;
64571;SDS011;51155;51.984;21.208;2023-12-07T03:05:41;9.80;;;6.20;;
64571;SDS011;51155;51.984;21.208;2023-12-07T03:08:13;10.20;;;6.50;;
64571;SDS011;51155;51.984;21.208;2023-12-07T03:10:45;9.00;;;5.80;;
64571;SDS011;51155;51.984;21.208;2023-12-07T03:13:16;9.30;;;5.60;;
64571;SDS011;51155;51.984;21.208;2023-12-07T03:15:48;9.20;;;5.80;;
64571;SDS011;51155;51.984;21.208;2023-12-07T03:18:20;9.60;;;6.10;;
64571;SDS011;51155;51.984;21.208;2023-12-07T03:20:52;8.90;;;6.00;;
64571;SDS011;51155;51.984;21.208;2023-12-07T03:23:23;8.20;;;5.70;;
64571;SDS011;51155;51.984;21.208;2023-12-07T03:25:55;10.50;;;6.00;;
64571;SDS011;51155;51.984;21.208;2023-12-07T03:28:27;8.60;;;6.10;;
64571;SDS011;51155;51.984;21.208;2023-12-07T03:30:58;10.40;;;6.40;;
64571;SDS011;51155;51.984;21.208;2023-12-07T03:33:30;9.50;;;6.40;;
64571;SDS011;51155;51.984;21.208;2023-12-07T03:36:02;8.50;;;6.10;;
64571;SDS011;51155;51.984;21.208;2023-12-07T03:38:34;10.80;;;7.00;;
64571;SDS011;51155;51.984;21.208;2023-12-07T03:41:05;9.10;;;6.00;;
64571;SDS011;51155;51.984;21.208;2023-12-07T03:43:37;10.20;;;6.10;;
64571;SDS011;51155;51.984;21.208;2023-12-07T03:46:08;10.10;;;6.20;;
64571;SDS011;51155;51.984;21.208;2023-12-07T03:48:40;9.30;;;6.30;;
64571;SDS011;51155;51.984;21.208;2023-12-07T03:51:13;8.40;;;5.80;;
64571;SDS011;51155;51.984;21.208;2023-12-07T03:53:46;8.80;;;5.90;;
64571;SDS011;51155;51.984;21.208;2023-12-07T03:56:24;9.70;;;5.90;;
64571;SDS011;51155;51.984;21.208;2023-12-07T03:58:56;9.40;;;6.00;;
64571;SDS011;51155;51.984;21.208;2023-12-07T04:01:29;8.20;;;5.30;;
64571;SDS011;51155;51.984;21.208;2023-12-07T04:04:01;9.30;;;5.90;;
64571;SDS011;51155;51.984;21.208;2023-12-07T04:06:33;8.40;;;5.40;;
64571;SDS011;51155;51.984;21.208;2023-12-07T04:09:04;9.30;;;5.60;;
64571;SDS011;51155;51.984;21.208;2023-12-07T04:11:36;8.90;;;5.90;;
64571;SDS011;51155;51.984;21.208;2023-12-07T04:14:07;8.30;;;5.70;;
64571;SDS011;51155;51.984;21.208;2023-12-07T04:16:39;9.60;;;5.80;;
64571;SDS011;51155;51.984;21.208;2023-12-07T04:19:11;9.40;;;5.50;;
64571;SDS011;51155;51.984;21.208;2023-12-07T04:21:43;9.40;;;5.90;;
64571;SDS011;51155;51.984;21.208;2023-12-07T04:24:14;9.00;;;6.30;;
64571;SDS011;51155;51.984;21.208;2023-12-07T04:26:46;10.00;;;5.70;;
64571;SDS011;51155;51.984;21.208;2023-12-07T04:29:17;8.70;;;5.40;;
64571;SDS011;51155;51.984;21.208;2023-12-07T04:31:49;8.20;;;4.90;;
64571;SDS011;51155;51.984;21.208;2023-12-07T04:34:20;9.20;;;6.00;;
64571;SDS011;51155;51.984;21.208;2023-12-07T04:36:52;10.00;;;6.10;;
64571;SDS011;51155;51.984;21.208;2023-12-07T04:39:24;7.40;;;5.70;;
64571;SDS011;51155;51.984;21.208;2023-12-07T04:41:55;9.70;;;6.00;;
64571;SDS011;51155;51.984;21.208;2023-12-07T04:44:27;8.70;;;6.00;;
64571;SDS011;51155;51.984;21.208;2023-12-07T04:47:00;9.10;;;5.50;;
64571;SDS011;51155;51.984;21.208;2023-12-07T04:49:31;8.50;;;5.50;;
64571;SDS011;51155;51.984;21.208;2023-12-07T04:52:03;8.60;;;5.40;;
64571;SDS011;51155;51.984;21.208;2023-12-07T04:54:35;8.50;;;5.30;;
64571;SDS011;51155;51.984;21.208;2023-12-07T04:57:06;9.70;;;6.10;;
64571;SDS011;51155;51.984;21.208;2023-12-07T04:59:38;8.90;;;5.00;;
64571;SDS011;51155;51.984;21.208;2023-12-07T05:04:43;9.30;;;5.20;;
64571;SDS011;51155;51.984;21.208;2023-12-07T05:07:16;8.70;;;4.60;;
64571;SDS011;51155;51.984;21.208;2023-12-07T05:09:48;7.80;;;5.20;;
64571;SDS011;51155;51.984;21.208;2023-12-07T05:12:22;8.10;;;5.30;;
64571;SDS011;51155;51.984;21.208;2023-12-07T05:14:54;9.30;;;5.30;;
64571;SDS011;51155;51.984;21.208;2023-12-07T05:17:25;8.30;;;5.30;;
64571;SDS011;51155;51.984;21.208;2023-12-07T05:19:57;7.60;;;4.90;;
64571;SDS011;51155;51.984;21.208;2023-12-07T05:22:29;9.40;;;5.00;;
64571;SDS011;51155;51.984;21.208;2023-12-07T05:25:00;7.30;;;4.70;;
64571;SDS011;51155;51.984;21.208;2023-12-07T05:27:32;7.70;;;5.30;;
64571;SDS011;51155;51.984;21.208;2023-12-07T05:30:04;7.50;;;4.60;;
64571;SDS011;51155;51.984;21.208;2023-12-07T05:32:36;9.40;;;5.40;;
64571;SDS011;51155;51.984;21.208;2023-12-07T05:37:40;8.20;;;4.70;;
64571;SDS011;51155;51.984;21.208;2023-12-07T05:40:12;10.20;;;5.00;;
64571;SDS011;51155;51.984;21.208;2023-12-07T05:42:48;9.80;;;5.80;;
64571;SDS011;51155;51.984;21.208;2023-12-07T05:45:20;7.40;;;4.80;;
64571;SDS011;51155;51.984;21.208;2023-12-07T05:47:52;7.50;;;4.90;;
64571;SDS011;51155;51.984;21.208;2023-12-07T05:50:24;7.70;;;4.70;;
64571;SDS011;51155;51.984;21.208;2023-12-07T05:52:55;6.10;;;4.60;;
64571;SDS011;51155;51.984;21.208;2023-12-07T05:55:27;6.70;;;4.70;;
64571;SDS011;51155;51.984;21.208;2023-12-07T05:57:59;7.80;;;4.90;;
64571;SDS011;51155;51.984;21.208;2023-12-07T06:00:30;6.70;;;4.50;;
64571;SDS011;51155;51.984;21.208;2023-12-07T06:03:03;6.80;;;4.30;;
64571;SDS011;51155;51.984;21.208;2023-12-07T06:05:38;7.70;;;4.60;;
64571;SDS011;51155;51.984;21.208;2023-12-07T06:08:10;9.00;;;5.10;;
64571;SDS011;51155;51.984;21.208;2023-12-07T06:10:42;8.00;;;5.20;;
64571;SDS011;51155;51.984;21.208;2023-12-07T06:13:13;7.50;;;4.70;;
64571;SDS011;51155;51.984;21.208;2023-12-07T06:15:45;7.50;;;4.70;;
64571;SDS011;51155;51.984;21.208;2023-12-07T06:18:17;7.30;;;4.50;;
64571;SDS011;51155;51.984;21.208;2023-12-07T06:20:50;7.40;;;4.60;;
64571;SDS011;51155;51.984;21.208;2023-12-07T06:23:22;7.90;;;5.10;;
64571;SDS011;51155;51.984;21.208;2023-12-07T06:25:54;7.70;;;5.10;;
64571;SDS011;51155;51.984;21.208;2023-12-07T06:28:25;7.30;;;4.40;;
64571;SDS011;51155;51.984;21.208;2023-12-07T06:33:33;7.10;;;4.40;;
64571;SDS011;51155;51.984;21.208;2023-12-07T06:38:37;7.50;;;4.00;;
64571;SDS011;51155;51.984;21.208;2023-12-07T06:41:10;7.00;;;4.70;;
64571;SDS011;51155;51.984;21.208;2023-12-07T06:43:41;7.70;;;4.80;;
64571;SDS011;51155;51.984;21.208;2023-12-07T06:46:16;6.90;;;4.90;;
64571;SDS011;51155;51.984;21.208;2023-12-07T06:48:48;8.00;;;4.60;;
64571;SDS011;51155;51.984;21.208;2023-12-07T06:51:20;8.00;;;4.80;;
64571;SDS011;51155;51.984;21.208;2023-12-07T06:53:51;6.50;;;4.40;;
64571;SDS011;51155;51.984;21.208;2023-12-07T06:56:23;8.30;;;4.90;;
64571;SDS011;51155;51.984;21.208;2023-12-07T06:58:55;8.60;;;4.70;;
64571;SDS011;51155;51.984;21.208;2023-12-07T07:01:26;7.70;;;5.10;;
64571;SDS011;51155;51.984;21.208;2023-12-07T07:03:58;7.20;;;4.60;;
64571;SDS011;51155;51.984;21.208;2023-12-07T07:06:30;6.40;;;4.70;;
64571;SDS011;51155;51.984;21.208;2023-12-07T07:09:01;9.00;;;4.90;;
64571;SDS011;51155;51.984;21.208;2023-12-07T07:11:34;8.10;;;5.30;;
64571;SDS011;51155;51.984;21.208;2023-12-07T07:14:06;7.70;;;4.60;;
64571;SDS011;51155;51.984;21.208;2023-12-07T07:16:37;5.40;;;4.20;;
64571;SDS011;51155;51.984;21.208;2023-12-07T07:19:10;7.40;;;4.90;;
64571;SDS011;51155;51.984;21.208;2023-12-07T07:21:42;6.10;;;4.30;;
64571;SDS011;51155;51.984;21.208;2023-12-07T07:24:14;6.60;;;4.30;;
64571;SDS011;51155;51.984;21.208;2023-12-07T07:26:46;7.80;;;4.80;;
64571;SDS011;51155;51.984;21.208;2023-12-07T07:29:17;7.20;;;4.70;;
64571;SDS011;51155;51.984;21.208;2023-12-07T07:31:49;6.80;;;4.40;;
64571;SDS011;51155;51.984;21.208;2023-12-07T07:34:21;8.30;;;4.70;;
64571;SDS011;51155;51.984;21.208;2023-12-07T07:36:53;8.00;;;4.60;;
64571;SDS011;51155;51.984;21.208;2023-12-07T07:39:24;7.20;;;4.00;;
64571;SDS011;51155;51.984;21.208;2023-12-07T07:41:56;7.70;;;4.50;;
64571;SDS011;51155;51.984;21.208;2023-12-07T07:44:27;7.50;;;4.40;;
64571;SDS011;51155;51.984;21.208;2023-12-07T07:46:59;7.70;;;4.30;;
64571;SDS011;51155;51.984;21.208;2023-12-07T07:49:31;10.20;;;4.70;;
64571;SDS011;51155;51.984;21.208;2023-12-07T07:52:02;9.20;;;5.70;;
64571;SDS011;51155;51.984;21.208;2023-12-07T07:54:36;8.30;;;4.70;;
64571;SDS011;51155;51.984;21.208;2023-12-07T07:57:08;10.50;;;4.20;;
64571;SDS011;51155;51.984;21.208;2023-12-07T07:59:40;7.40;;;4.60;;
64571;SDS011;51155;51.984;21.208;2023-12-07T08:02:12;8.50;;;4.70;;
64571;SDS011;51155;51.984;21.208;2023-12-07T08:04:44;8.80;;;4.90;;
64571;SDS011;51155;51.984;21.208;2023-12-07T08:07:15;7.70;;;4.30;;
64571;SDS011;51155;51.984;21.208;2023-12-07T08:09:47;6.60;;;4.60;;
64571;SDS011;51155;51.984;21.208;2023-12-07T08:12:19;7.20;;;4.80;;
64571;SDS011;51155;51.984;21.208;2023-12-07T08:14:50;7.80;;;4.20;;
64571;SDS011;51155;51.984;21.208;2023-12-07T08:17:22;7.80;;;4.40;;
64571;SDS011;51155;51.984;21.208;2023-12-07T08:19:54;8.90;;;5.30;;
64571;SDS011;51155;51.984;21.208;2023-12-07T08:22:26;7.40;;;4.80;;
64571;SDS011;51155;51.984;21.208;2023-12-07T08:24:57;7.90;;;4.60;;
64571;SDS011;51155;51.984;21.208;2023-12-07T08:27:41;8.30;;;4.80;;
64571;SDS011;51155;51.984;21.208;2023-12-07T08:30:13;9.60;;;4.90;;
64571;SDS011;51155;51.984;21.208;2023-12-07T08:32:47;8.90;;;4.80;;
64571;SDS011;51155;51.984;21.208;2023-12-07T08:35:19;10.30;;;4.80;;
64571;SDS011;51155;51.984;21.208;2023-12-07T08:37:50;8.30;;;4.90;;
64571;SDS011;51155;51.984;21.208;2023-12-07T08:40:22;8.50;;;4.80;;
64571;SDS011;51155;51.984;21.208;2023-12-07T08:42:54;9.20;;;4.60;;
64571;SDS011;51155;51.984;21.208;2023-12-07T08:45:26;8.10;;;5.00;;
64571;SDS011;51155;51.984;21.208;2023-12-07T08:47:57;10.30;;;4.90;;
64571;SDS011;51155;51.984;21.208;2023-12-07T08:50:29;9.10;;;5.10;;
64571;SDS011;51155;51.984;21.208;2023-12-07T08:53:01;9.10;;;4.70;;
64571;SDS011;51155;51.984;21.208;2023-12-07T08:55:36;8.90;;;5.10;;
64571;SDS011;51155;51.984;21.208;2023-12-07T08:58:07;10.10;;;5.40;;
64571;SDS011;51155;51.984;21.208;2023-12-07T09:00:39;8.70;;;5.50;;
64571;SDS011;51155;51.984;21.208;2023-12-07T09:03:11;9.10;;;5.30;;
64571;SDS011;51155;51.984;21.208;2023-12-07T09:05:43;8.80;;;5.30;;
64571;SDS011;51155;51.984;21.208;2023-12-07T09:08:15;8.90;;;5.40;;
64571;SDS011;51155;51.984;21.208;2023-12-07T09:10:47;8.10;;;5.40;;
64571;SDS011;51155;51.984;21.208;2023-12-07T09:13:21;8.10;;;5.40;;
64571;SDS011;51155;51.984;21.208;2023-12-07T09:15:52;9.20;;;5.60;;
64571;SDS011;51155;51.984;21.208;2023-12-07T09:18:25;9.50;;;5.90;;
64571;SDS011;51155;51.984;21.208;2023-12-07T09:20:57;8.80;;;5.20;;
64571;SDS011;51155;51.984;21.208;2023-12-07T09:23:28;7.00;;;5.20;;
64571;SDS011;51155;51.984;21.208;2023-12-07T09:26:00;8.50;;;5.30;;
64571;SDS011;51155;51.984;21.208;2023-12-07T09:28:32;9.70;;;5.40;;
64571;SDS011;51155;51.984;21.208;2023-12-07T09:31:07;11.00;;;5.60;;
64571;SDS011;51155;51.984;21.208;2023-12-07T09:33:39;9.70;;;5.80;;
64571;SDS011;51155;51.984;21.208;2023-12-07T09:36:11;8.60;;;5.60;;
64571;SDS011;51155;51.984;21.208;2023-12-07T09:38:43;7.60;;;4.90;;
64571;SDS011;51155;51.984;21.208;2023-12-07T09:41:15;8.30;;;5.60;;
64571;SDS011;51155;51.984;21.208;2023-12-07T09:43:47;7.20;;;4.90;;
64571;SDS011;51155;51.984;21.208;2023-12-07T09:46:19;10.40;;;5.50;;
64571;SDS011;51155;51.984;21.208;2023-12-07T09:48:51;8.50;;;5.90;;
64571;SDS011;51155;51.984;21.208;2023-12-07T09:51:22;9.10;;;5.00;;
64571;SDS011;51155;51.984;21.208;2023-12-07T09:53:57;9.00;;;5.10;;
64571;SDS011;51155;51.984;21.208;2023-12-07T09:56:29;10.60;;;5.60;;
64571;SDS011;51155;51.984;21.208;2023-12-07T09:59:01;8.50;;;5.40;;
64571;SDS011;51155;51.984;21.208;2023-12-07T10:01:32;8.90;;;5.10;;
64571;SDS011;51155;51.984;21.208;2023-12-07T10:04:20;9.80;;;5.50;;
64571;SDS011;51155;51.984;21.208;2023-12-07T10:06:56;8.10;;;5.60;;
64571;SDS011;51155;51.984;21.208;2023-12-07T10:09:29;9.70;;;5.20;;
64571;SDS011;51155;51.984;21.208;2023-12-07T10:12:05;8.90;;;5.40;;
64571;SDS011;51155;51.984;21.208;2023-12-07T10:14:37;7.60;;;4.90;;
64571;SDS011;51155;51.984;21.208;2023-12-07T10:17:09;8.40;;;5.70;;
64571;SDS011;51155;51.984;21.208;2023-12-07T10:19:41;9.50;;;5.60;;
64571;SDS011;51155;51.984;21.208;2023-12-07T10:22:13;12.20;;;5.90;;
64571;SDS011;51155;51.984;21.208;2023-12-07T10:24:46;8.20;;;5.90;;
64571;SDS011;51155;51.984;21.208;2023-12-07T10:27:19;8.80;;;5.70;;
64571;SDS011;51155;51.984;21.208;2023-12-07T10:29:50;9.10;;;5.40;;
64571;SDS011;51155;51.984;21.208;2023-12-07T10:32:22;9.70;;;5.70;;
64571;SDS011;51155;51.984;21.208;2023-12-07T10:34:54;9.40;;;5.60;;
64571;SDS011;51155;51.984;21.208;2023-12-07T10:37:30;11.50;;;5.60;;
64571;SDS011;51155;51.984;21.208;2023-12-07T10:40:02;9.60;;;6.20;;
64571;SDS011;51155;51.984;21.208;2023-12-07T10:45:07;10.50;;;5.80;;
64571;SDS011;51155;51.984;21.208;2023-12-07T10:47:40;7.70;;;5.20;;
64571;SDS011;51155;51.984;21.208;2023-12-07T10:50:16;8.20;;;5.50;;
64571;SDS011;51155;51.984;21.208;2023-12-07T10:52:53;8.40;;;5.70;;
64571;SDS011;51155;51.984;21.208;2023-12-07T10:55:28;8.60;;;5.90;;
64571;SDS011;51155;51.984;21.208;2023-12-07T10:58:00;9.00;;;5.90;;
64571;SDS011;51155;51.984;21.208;2023-12-07T11:00:33;9.40;;;5.80;;
64571;SDS011;51155;51.984;21.208;2023-12-07T11:03:17;8.60;;;6.00;;
64571;SDS011;51155;51.984;21.208;2023-12-07T11:05:50;8.60;;;5.90;;
64571;SDS011;51155;51.984;21.208;2023-12-07T11:08:41;9.00;;;5.60;;
64571;SDS011;51155;51.984;21.208;2023-12-07T11:11:22;9.10;;;5.40;;
64571;SDS011;51155;51.984;21.208;2023-12-07T11:13:58;9.20;;;5.90;;
64571;SDS011;51155;51.984;21.208;2023-12-07T11:16:32;7.80;;;5.40;;
64571;SDS011;51155;51.984;21.208;2023-12-07T11:19:04;9.90;;;6.00;;
64571;SDS011;51155;51.984;21.208;2023-12-07T11:21:43;7.70;;;5.30;;
64571;SDS011;51155;51.984;21.208;2023-12-07T11:24:16;8.80;;;5.30;;
64571;SDS011;51155;51.984;21.208;2023-12-07T11:26:48;8.60;;;5.80;;
64571;SDS011;51155;51.984;21.208;2023-12-07T11:29:20;8.10;;;5.40;;
64571;SDS011;51155;51.984;21.208;2023-12-07T11:32:06;9.30;;;5.40;;
64571;SDS011;51155;51.984;21.208;2023-12-07T11:34:52;9.70;;;6.00;;
64571;SDS011;51155;51.984;21.208;2023-12-07T11:37:23;9.30;;;5.30;;
64571;SDS011;51155;51.984;21.208;2023-12-07T11:40:15;8.70;;;5.50;;
64571;SDS011;51155;51.984;21.208;2023-12-07T11:42:47;8.20;;;5.30;;
64571;SDS011;51155;51.984;21.208;2023-12-07T11:45:47;8.70;;;5.90;;
64571;SDS011;51155;51.984;21.208;2023-12-07T11:48:20;7.90;;;5.50;;
64571;SDS011;51155;51.984;21.208;2023-12-07T11:50:55;8.40;;;6.00;;
64571;SDS011;51155;51.984;21.208;2023-12-07T11:53:31;8.40;;;6.20;;
64571;SDS011;51155;51.984;21.208;2023-12-07T11:56:05;7.70;;;5.60;;
64571;SDS011;51155;51.984;21.208;2023-12-07T11:58:37;9.50;;;5.80;;
64571;SDS011;51155;51.984;21.208;2023-12-07T12:01:12;8.80;;;6.10;;
64571;SDS011;51155;51.984;21.208;2023-12-07T12:03:44;8.10;;;5.80;;
64571;SDS011;51155;51.984;21.208;2023-12-07T12:06:15;7.50;;;5.70;;
64571;SDS011;51155;51.984;21.208;2023-12-07T12:08:48;8.40;;;5.70;;
64571;SDS011;51155;51.984;21.208;2023-12-07T12:11:19;7.40;;;5.30;;
64571;SDS011;51155;51.984;21.208;2023-12-07T12:13:51;8.80;;;6.00;;
64571;SDS011;51155;51.984;21.208;2023-12-07T12:16:23;8.90;;;5.50;;
64571;SDS011;51155;51.984;21.208;2023-12-07T12:18:55;9.50;;;6.10;;
64571;SDS011;51155;51.984;21.208;2023-12-07T12:21:26;7.80;;;5.80;;
64571;SDS011;51155;51.984;21.208;2023-12-07T12:23:58;8.40;;;6.00;;
64571;SDS011;51155;51.984;21.208;2023-12-07T12:26:29;10.80;;;5.90;;
64571;SDS011;51155;51.984;21.208;2023-12-07T12:29:01;10.00;;;6.40;;
64571;SDS011;51155;51.984;21.208;2023-12-07T12:31:34;9.10;;;6.30;;
64571;SDS011;51155;51.984;21.208;2023-12-07T12:34:06;8.70;;;6.10;;
64571;SDS011;51155;51.984;21.208;2023-12-07T12:36:45;11.80;;;7.30;;
64571;SDS011;51155;51.984;21.208;2023-12-07T12:39:16;10.90;;;6.70;;
64571;SDS011;51155;51.984;21.208;2023-12-07T12:42:01;9.60;;;6.10;;
64571;SDS011;51155;51.984;21.208;2023-12-07T12:44:34;10.60;;;6.60;;
64571;SDS011;51155;51.984;21.208;2023-12-07T12:47:09;11.00;;;6.80;;
64571;SDS011;51155;51.984;21.208;2023-12-07T12:52:16;9.90;;;6.30;;
64571;SDS011;51155;51.984;21.208;2023-12-07T12:54:48;11.40;;;6.80;;
64571;SDS011;51155;51.984;21.208;2023-12-07T12:57:21;10.50;;;6.50;;
64571;SDS011;51155;51.984;21.208;2023-12-07T12:59:52;9.70;;;6.30;;
64571;SDS011;51155;51.984;21.208;2023-12-07T13:02:24;9.60;;;6.90;;
64571;SDS011;51155;51.984;21.208;2023-12-07T13:04:56;13.00;;;7.80;;
64571;SDS011;51155;51.984;21.208;2023-12-07T13:07:30;9.50;;;6.30;;
64571;SDS011;51155;51.984;21.208;2023-12-07T13:10:02;11.00;;;6.50;;
64571;SDS011;51155;51.984;21.208;2023-12-07T13:12:34;9.80;;;6.60;;
64571;SDS011;51155;51.984;21.208;2023-12-07T13:15:07;10.20;;;6.40;;
64571;SDS011;51155;51.984;21.208;2023-12-07T13:17:42;12.70;;;7.00;;
64571;SDS011;51155;51.984;21.208;2023-12-07T13:20:14;9.90;;;6.60;;
64571;SDS011;51155;51.984;21.208;2023-12-07T13:22:46;9.30;;;6.80;;
64571;SDS011;51155;51.984;21.208;2023-12-07T13:25:18;10.00;;;6.50;;
64571;SDS011;51155;51.984;21.208;2023-12-07T13:27:49;9.20;;;6.30;;
64571;SDS011;51155;51.984;21.208;2023-12-07T13:30:21;8.50;;;6.60;;
64571;SDS011;51155;51.984;21.208;2023-12-07T13:32:53;10.50;;;6.80;;
64571;SDS011;51155;51.984;21.208;2023-12-07T13:35:25;9.00;;;6.60;;
64571;SDS011;51155;51.984;21.208;2023-12-07T13:37:57;9.70;;;6.30;;
64571;SDS011;51155;51.984;21.208;2023-12-07T13:40:29;12.00;;;7.20;;
64571;SDS011;51155;51.984;21.208;2023-12-07T13:43:01;9.40;;;6.40;;
64571;SDS011;51155;51.984;21.208;2023-12-07T13:45:32;9.20;;;6.10;;
64571;SDS011;51155;51.984;21.208;2023-12-07T13:48:04;10.00;;;6.10;;
64571;SDS011;51155;51.984;21.208;2023-12-07T13:50:36;10.70;;;6.40;;
64571;SDS011;51155;51.984;21.208;2023-12-07T13:53:07;9.20;;;6.70;;
64571;SDS011;51155;51.984;21.208;2023-12-07T13:55:42;9.20;;;6.40;;
64571;SDS011;51155;51.984;21.208;2023-12-07T13:58:14;10.00;;;6.40;;
64571;SDS011;51155;51.984;21.208;2023-12-07T14:00:46;12.10;;;6.90;;
64571;SDS011;51155;51.984;21.208;2023-12-07T14:03:18;11.10;;;7.20;;
64571;SDS011;51155;51.984;21.208;2023-12-07T14:05:50;9.70;;;6.30;;
64571;SDS011;51155;51.984;21.208;2023-12-07T14:08:21;7.80;;;5.60;;
64571;SDS011;51155;51.984;21.208;2023-12-07T14:10:53;8.20;;;6.20;;
64571;SDS011;51155;51.984;21.208;2023-12-07T14:13:25;9.70;;;7.20;;
64571;SDS011;51155;51.984;21.208;2023-12-07T14:15:56;8.60;;;5.90;;
64571;SDS011;51155;51.984;21.208;2023-12-07T14:18:40;9.10;;;6.50;;
64571;SDS011;51155;51.984;21.208;2023-12-07T14:21:12;10.40;;;7.10;;
64571;SDS011;51155;51.984;21.208;2023-12-07T14:24:00;9.20;;;6.50;;
64571;SDS011;51155;51.984;21.208;2023-12-07T14:26:32;10.00;;;6.80;;
64571;SDS011;51155;51.984;21.208;2023-12-07T14:29:04;10.00;;;6.70;;
64571;SDS011;51155;51.984;21.208;2023-12-07T14:31:35;8.60;;;6.80;;
64571;SDS011;51155;51.984;21.208;2023-12-07T14:34:09;9.60;;;6.40;;
64571;SDS011;51155;51.984;21.208;2023-12-07T14:36:45;8.90;;;6.30;;
64571;SDS011;51155;51.984;21.208;2023-12-07T14:39:16;9.50;;;6.40;;
64571;SDS011;51155;51.984;21.208;2023-12-07T14:41:49;9.20;;;6.80;;
64571;SDS011;51155;51.984;21.208;2023-12-07T14:44:24;10.90;;;7.00;;
64571;SDS011;51155;51.984;21.208;2023-12-07T14:47:00;8.80;;;6.50;;
64571;SDS011;51155;51.984;21.208;2023-12-07T14:49:32;8.80;;;6.70;;
64571;SDS011;51155;51.984;21.208;2023-12-07T14:52:04;8.60;;;6.50;;
64571;SDS011;51155;51.984;21.208;2023-12-07T14:54:36;11.00;;;6.60;;
64571;SDS011;51155;51.984;21.208;2023-12-07T14:57:08;8.30;;;6.50;;
64571;SDS011;51155;51.984;21.208;2023-12-07T14:59:41;9.30;;;6.80;;
64571;SDS011;51155;51.984;21.208;2023-12-07T15:02:14;9.10;;;7.20;;
64571;SDS011;51155;51.984;21.208;2023-12-07T15:07:18;10.10;;;6.80;;
64571;SDS011;51155;51.984;21.208;2023-12-07T15:09:49;9.70;;;6.70;;
64571;SDS011;51155;51.984;21.208;2023-12-07T15:12:23;9.20;;;6.60;;
64571;SDS011;51155;51.984;21.208;2023-12-07T15:15:00;9.40;;;6.70;;
64571;SDS011;51155;51.984;21.208;2023-12-07T15:17:31;8.70;;;6.70;;
64571;SDS011;51155;51.984;21.208;2023-12-07T15:20:03;9.50;;;6.80;;
64571;SDS011;51155;51.984;21.208;2023-12-07T15:22:35;9.20;;;6.60;;
64571;SDS011;51155;51.984;21.208;2023-12-07T15:25:07;9.70;;;6.80;;